Time,TemperatureF,DewpointF,PressureIn,WindDirection,WindDirectionDegrees,WindSpeedMPH,WindSpeedGustMPH,Humidity,HourlyPrecipIn,Conditions,Clouds,dailyrainin,SolarRadiationWatts/m^2,SoftwareType,DateUTC
2013-03-16 00:03:00,31.0,29.0,-100.00,WNW,301,1.0,9.0,92,0.00,,,0.00,0.000000,,2013-03-16 04:03:00,
2013-03-16 00:13:00,31.0,29.0,-100.00,WNW,301,1.0,9.0,92,0.00,,,0.00,0.000000,,2013-03-16 04:13:00,
2013-03-16 00:23:00,31.0,29.0,-100.00,WNW,301,1.0,9.0,92,0.00,,,0.00,0.000000,,2013-03-16 04:23:00,
2013-03-16 00:53:00,31.0,29.0,-100.00,NW,326,3.0,10.0,94,0.00,,,0.00,0.000000,,2013-03-16 04:53:00,
2013-03-16 01:03:00,31.0,29.0,-100.00,NW,326,3.0,10.0,94,0.00,,,0.00,0.000000,,2013-03-16 05:03:00,
2013-03-16 01:12:00,31.0,29.0,-100.00,NW,326,3.0,10.0,94,0.00,,,0.00,0.000000,,2013-03-16 05:12:00,
2013-03-16 01:22:00,31.0,29.0,-100.00,NW,326,3.0,10.0,94,0.00,,,0.00,0.000000,,2013-03-16 05:22:00,
2013-03-16 01:53:00,28.0,26.0,-100.00,NW,312,2.0,6.0,92,0.00,,,0.00,0.000000,,2013-03-16 05:53:00,
2013-03-16 02:02:00,28.0,26.0,-100.00,NW,312,2.0,6.0,92,0.00,,,0.00,0.000000,,2013-03-16 06:02:00,
2013-03-16 02:12:00,28.0,26.0,-100.00,NW,312,2.0,6.0,92,0.00,,,0.00,0.000000,,2013-03-16 06:12:00,
2013-03-16 02:22:00,28.0,26.0,-100.00,NW,312,2.0,6.0,92,0.00,,,0.00,0.000000,,2013-03-16 06:22:00,
2013-03-16 02:52:00,27.0,20.0,-100.00,WNW,290,4.0,10.0,75,0.00,,,0.00,0.000000,,2013-03-16 06:52:00,
2013-03-16 03:02:00,27.0,20.0,-100.00,WNW,290,4.0,10.0,75,0.00,,,0.00,0.000000,,2013-03-16 07:02:00,
2013-03-16 03:12:00,27.0,20.0,-100.00,WNW,290,4.0,10.0,75,0.00,,,0.00,0.000000,,2013-03-16 07:12:00,
2013-03-16 03:22:00,27.0,20.0,-100.00,WNW,290,4.0,10.0,75,0.00,,,0.00,0.000000,,2013-03-16 07:22:00,
2013-03-16 03:53:00,26.0,18.0,-100.00,WNW,301,3.0,10.0,72,0.00,,,0.00,0.000000,,2013-03-16 07:53:00,
2013-03-16 04:03:00,26.0,18.0,-100.00,WNW,301,3.0,10.0,72,0.00,,,0.00,0.000000,,2013-03-16 08:03:00,
2013-03-16 04:12:00,26.0,18.0,-100.00,WNW,301,3.0,10.0,72,0.00,,,0.00,0.000000,,2013-03-16 08:12:00,
2013-03-16 04:23:00,26.0,18.0,-100.00,WNW,301,3.0,10.0,72,0.00,,,0.00,0.000000,,2013-03-16 08:23:00,
2013-03-16 04:52:00,25.0,18.0,-100.00,WNW,301,3.0,8.0,74,0.00,,,0.00,0.000000,,2013-03-16 08:52:00,
2013-03-16 05:02:00,25.0,18.0,-100.00,WNW,301,3.0,8.0,74,0.00,,,0.00,0.000000,,2013-03-16 09:02:00,
2013-03-16 05:12:00,25.0,18.0,-100.00,WNW,301,3.0,8.0,74,0.00,,,0.00,0.000000,,2013-03-16 09:12:00,
2013-03-16 05:22:00,25.0,18.0,-100.00,WNW,301,3.0,8.0,74,0.00,,,0.00,0.000000,,2013-03-16 09:22:00,
2013-03-16 05:53:00,24.0,19.0,-100.00,West,279,3.0,6.0,80,0.00,,,0.00,0.000000,,2013-03-16 09:53:00,
2013-03-16 06:03:00,24.0,19.0,-100.00,West,279,3.0,6.0,80,0.00,,,0.00,0.000000,,2013-03-16 10:03:00,
2013-03-16 06:12:00,24.0,19.0,-100.00,West,279,3.0,6.0,80,0.00,,,0.00,0.000000,,2013-03-16 10:12:00,
2013-03-16 06:23:00,24.0,19.0,-100.00,West,279,3.0,6.0,80,0.00,,,0.00,0.000000,,2013-03-16 10:23:00,
2013-03-16 06:53:00,24.0,18.0,-100.00,West,271,4.0,7.0,78,0.00,,,0.00,0.000000,,2013-03-16 10:53:00,
2013-03-16 07:03:00,24.0,18.0,-100.00,West,271,4.0,7.0,78,0.00,,,0.00,0.000000,,2013-03-16 11:03:00,
2013-03-16 07:12:00,24.0,18.0,-100.00,West,271,4.0,7.0,78,0.00,,,0.00,0.000000,,2013-03-16 11:12:00,
2013-03-16 07:22:00,24.0,18.0,-100.00,West,271,4.0,7.0,78,0.00,,,0.00,0.000000,,2013-03-16 11:22:00,
2013-03-16 07:53:00,23.0,17.0,-100.00,WNW,296,2.0,6.0,78,0.00,,,0.00,5.000000,,2013-03-16 11:53:00,
2013-03-16 08:02:00,23.0,17.0,-100.00,WNW,296,2.0,6.0,78,0.00,,,0.00,5.000000,,2013-03-16 12:02:00,
2013-03-16 08:12:00,23.0,17.0,-100.00,WNW,296,2.0,6.0,78,0.00,,,0.00,5.000000,,2013-03-16 12:12:00,
2013-03-16 08:22:00,23.0,17.0,-100.00,WNW,296,2.0,6.0,78,0.00,,,0.00,5.000000,,2013-03-16 12:22:00,
2013-03-16 08:53:00,29.0,18.0,-100.00,NW,318,3.0,8.0,64,0.00,,,0.00,104.000000,,2013-03-16 12:53:00,
2013-03-16 09:02:00,29.0,18.0,-100.00,NW,318,3.0,8.0,64,0.00,,,0.00,104.000000,,2013-03-16 13:02:00,
2013-03-16 09:12:00,29.0,18.0,-100.00,NW,318,3.0,8.0,64,0.00,,,0.00,104.000000,,2013-03-16 13:12:00,
2013-03-16 09:22:00,29.0,18.0,-100.00,NW,318,3.0,8.0,64,0.00,,,0.00,104.000000,,2013-03-16 13:22:00,
2013-03-16 09:53:00,33.0,16.0,-100.00,NW,319,4.0,11.0,50,0.03,,,0.03,273.000000,,2013-03-16 13:53:00,
2013-03-16 10:03:00,33.0,16.0,-100.00,NW,319,4.0,11.0,50,0.03,,,0.03,273.000000,,2013-03-16 14:03:00,
2013-03-16 10:12:00,33.0,16.0,-100.00,NW,319,4.0,11.0,50,0.03,,,0.03,273.000000,,2013-03-16 14:12:00,
2013-03-16 10:22:00,33.0,16.0,-100.00,NW,319,4.0,11.0,50,0.03,,,0.03,273.000000,,2013-03-16 14:22:00,
2013-03-16 10:53:00,34.0,16.0,-100.00,NW,318,4.0,11.0,47,0.01,,,0.04,465.000000,,2013-03-16 14:53:00,
2013-03-16 11:03:00,34.0,16.0,-100.00,NW,318,4.0,11.0,47,0.01,,,0.04,465.000000,,2013-03-16 15:03:00,
2013-03-16 11:13:00,34.0,16.0,-100.00,NW,318,4.0,11.0,47,0.01,,,0.04,465.000000,,2013-03-16 15:13:00,
2013-03-16 11:22:00,34.0,16.0,-100.00,NW,318,4.0,11.0,47,0.01,,,0.04,465.000000,,2013-03-16 15:22:00,
2013-03-16 11:53:00,34.0,15.0,-100.00,NNE,14,3.0,9.0,45,0.00,,,0.04,526.000000,,2013-03-16 15:53:00,
2013-03-16 12:03:00,34.0,15.0,-100.00,NNE,14,3.0,9.0,45,0.00,,,0.04,526.000000,,2013-03-16 16:03:00,
2013-03-16 12:13:00,34.0,15.0,-100.00,NNE,14,3.0,9.0,45,0.00,,,0.04,526.000000,,2013-03-16 16:13:00,
2013-03-16 12:23:00,34.0,15.0,-100.00,NNE,14,3.0,9.0,45,0.00,,,0.04,526.000000,,2013-03-16 16:23:00,
2013-03-16 12:53:00,35.0,12.0,-100.00,West,259,4.0,9.0,38,0.00,,,0.04,378.000000,,2013-03-16 16:53:00,
2013-03-16 13:03:00,35.0,12.0,-100.00,West,259,4.0,9.0,38,0.00,,,0.04,378.000000,,2013-03-16 17:03:00,
2013-03-16 13:13:00,35.0,12.0,-100.00,West,259,4.0,9.0,38,0.00,,,0.04,378.000000,,2013-03-16 17:13:00,
2013-03-16 13:23:00,35.0,12.0,-100.00,West,259,4.0,9.0,38,0.00,,,0.04,378.000000,,2013-03-16 17:23:00,
2013-03-16 13:53:00,34.0,19.0,-100.00,SSE,153,5.0,11.0,54,0.00,,,0.04,354.000000,,2013-03-16 17:53:00,
2013-03-16 14:03:00,34.0,19.0,-100.00,SSE,153,5.0,11.0,54,0.00,,,0.04,354.000000,,2013-03-16 18:03:00,
2013-03-16 14:13:00,34.0,19.0,-100.00,SSE,153,5.0,11.0,54,0.00,,,0.04,354.000000,,2013-03-16 18:13:00,
2013-03-16 14:23:00,34.0,19.0,-100.00,SSE,153,5.0,11.0,54,0.00,,,0.04,354.000000,,2013-03-16 18:23:00,
2013-03-16 14:53:00,39.0,19.0,-100.00,ESE,111,3.0,11.0,45,0.00,,,0.04,670.000000,,2013-03-16 18:53:00,
2013-03-16 15:02:00,39.0,19.0,-100.00,ESE,111,3.0,11.0,45,0.00,,,0.04,670.000000,,2013-03-16 19:02:00,
2013-03-16 15:12:00,39.0,19.0,-100.00,ESE,111,3.0,11.0,45,0.00,,,0.04,670.000000,,2013-03-16 19:12:00,
2013-03-16 15:22:00,39.0,19.0,-100.00,ESE,111,3.0,11.0,45,0.00,,,0.04,670.000000,,2013-03-16 19:22:00,
2013-03-16 15:53:00,36.0,7.0,-100.00,WNW,292,6.0,14.0,29,0.00,,,0.04,281.000000,,2013-03-16 19:53:00,
2013-03-16 16:03:00,36.0,7.0,-100.00,WNW,292,6.0,14.0,29,0.00,,,0.04,281.000000,,2013-03-16 20:03:00,
2013-03-16 16:12:00,36.0,7.0,-100.00,WNW,292,6.0,14.0,29,0.00,,,0.04,281.000000,,2013-03-16 20:12:00,
2013-03-16 16:22:00,36.0,7.0,-100.00,WNW,292,6.0,14.0,29,0.00,,,0.04,281.000000,,2013-03-16 20:22:00,
2013-03-16 16:53:00,35.0,7.0,-100.00,NW,304,5.0,13.0,30,0.00,,,0.04,190.000000,,2013-03-16 20:53:00,
2013-03-16 17:02:00,35.0,7.0,-100.00,NW,304,5.0,13.0,30,0.00,,,0.04,190.000000,,2013-03-16 21:02:00,
2013-03-16 17:12:00,35.0,7.0,-100.00,NW,304,5.0,13.0,30,0.00,,,0.04,190.000000,,2013-03-16 21:12:00,
2013-03-16 17:22:00,35.0,7.0,-100.00,NW,304,5.0,13.0,30,0.00,,,0.04,190.000000,,2013-03-16 21:22:00,
2013-03-16 17:53:00,35.0,6.0,-100.00,NW,310,4.0,12.0,29,0.00,,,0.04,186.000000,,2013-03-16 21:53:00,
2013-03-16 18:03:00,35.0,6.0,-100.00,NW,310,4.0,12.0,29,0.00,,,0.04,186.000000,,2013-03-16 22:03:00,
2013-03-16 18:13:00,35.0,6.0,-100.00,NW,310,4.0,12.0,29,0.00,,,0.04,186.000000,,2013-03-16 22:13:00,
2013-03-16 18:23:00,35.0,6.0,-100.00,NW,310,4.0,12.0,29,0.00,,,0.04,186.000000,,2013-03-16 22:23:00,
2013-03-16 18:53:00,33.0,8.0,-100.00,NNW,330,3.0,10.0,34,0.00,,,0.04,56.000000,,2013-03-16 22:53:00,
2013-03-16 19:03:00,33.0,8.0,-100.00,NNW,330,3.0,10.0,34,0.00,,,0.04,56.000000,,2013-03-16 23:03:00,
2013-03-16 19:13:00,33.0,8.0,-100.00,NNW,330,3.0,10.0,34,0.00,,,0.04,56.000000,,2013-03-16 23:13:00,
2013-03-16 19:23:00,33.0,8.0,-100.00,NNW,330,3.0,10.0,34,0.00,,,0.04,56.000000,,2013-03-16 23:23:00,
2013-03-16 19:53:00,30.0,9.0,-100.00,NW,315,1.0,7.0,40,0.00,,,0.04,4.000000,,2013-03-16 23:53:00,
2013-03-16 20:02:00,30.0,9.0,-100.00,NW,315,1.0,7.0,40,0.00,,,0.04,4.000000,,2013-03-17 00:02:00,
2013-03-16 20:13:00,30.0,9.0,-100.00,NW,315,1.0,7.0,40,0.00,,,0.04,4.000000,,2013-03-17 00:13:00,
2013-03-16 20:22:00,30.0,9.0,-100.00,NW,315,1.0,7.0,40,0.00,,,0.04,4.000000,,2013-03-17 00:22:00,
2013-03-16 20:53:00,30.0,8.0,-100.00,WNW,292,1.0,5.0,38,0.00,,,0.04,0.000000,,2013-03-17 00:53:00,
2013-03-16 21:03:00,30.0,8.0,-100.00,WNW,292,1.0,5.0,38,0.00,,,0.04,0.000000,,2013-03-17 01:03:00,
2013-03-16 21:12:00,30.0,8.0,-100.00,WNW,292,1.0,5.0,38,0.00,,,0.04,0.000000,,2013-03-17 01:12:00,
2013-03-16 21:22:00,30.0,8.0,-100.00,WNW,292,1.0,5.0,38,0.00,,,0.04,0.000000,,2013-03-17 01:22:00,
2013-03-16 21:53:00,31.0,8.0,-100.00,NW,304,2.0,5.0,38,0.00,,,0.04,0.000000,,2013-03-17 01:53:00,
2013-03-16 22:03:00,31.0,8.0,-100.00,NW,304,2.0,5.0,38,0.00,,,0.04,0.000000,,2013-03-17 02:03:00,
2013-03-16 22:13:00,31.0,8.0,-100.00,NW,304,2.0,5.0,38,0.00,,,0.04,0.000000,,2013-03-17 02:13:00,
2013-03-16 22:23:00,31.0,8.0,-100.00,NW,304,2.0,5.0,38,0.00,,,0.04,0.000000,,2013-03-17 02:23:00,
2013-03-16 22:53:00,30.0,9.0,-100.00,WNW,303,2.0,3.0,40,0.00,,,0.04,0.000000,,2013-03-17 02:53:00,
2013-03-16 23:03:00,30.0,9.0,-100.00,WNW,303,2.0,3.0,40,0.00,,,0.04,0.000000,,2013-03-17 03:03:00,
2013-03-16 23:12:00,30.0,9.0,-100.00,WNW,303,2.0,3.0,40,0.00,,,0.04,0.000000,,2013-03-17 03:12:00,
2013-03-16 23:23:00,30.0,9.0,-100.00,WNW,303,2.0,3.0,40,0.00,,,0.04,0.000000,,2013-03-17 03:23:00,
2013-03-16 23:53:00,29.0,10.0,-100.00,NW,320,1.0,4.0,45,0.00,,,0.04,0.000000,,2013-03-17 03:53:00,